Yilmaz Kaptan — TCAU2 — position and weather

sailwx.info

Track history (hours):
 
Tides and Currents Weather Stations Pressure Air Temp Water Temp Dewpoint Dewpoint Depression Visibility Wind Speed Wind Dir Waves Ship Positions

Yilmaz Kaptan

Last reported at 2017-Nov-13 01:58 UTC. Time now 2017-Nov-20 07:29 UTC.
Position N 44°09' E 028°39'.

Length 73 m; draft 2.7 m.

Type: Cargo ship. MMSI: 271002143.

Date/timePositionNaut miles runAvg speedWind from/ knotsBaromVisibWave heightAir tempDewpointWater temp
2017-Nov-13 01:58N 44°09' E 028°39'0 0.0
2017-Nov-13 01:28N 44°09' E 028°39'0 0.0
2017-Nov-13 00:58N 44°09' E 028°39'0 0.0
2017-Nov-13 00:28N 44°09' E 028°39'0 0.0
2017-Nov-12 23:58N 44°09' E 028°39'0 0.0
2017-Nov-12 23:28N 44°09' E 028°39'0 0.0
2017-Nov-12 22:58N 44°09' E 028°39'0 0.0
2017-Nov-12 22:28N 44°09' E 028°39'0 0.0
2017-Nov-12 21:58N 44°09' E 028°39'0 0.0
2017-Nov-12 21:28N 44°09' E 028°39'0 0.0
2017-Nov-12 20:58N 44°09' E 028°39'0 0.0
2017-Nov-12 20:28N 44°09' E 028°39'0 0.0
2017-Nov-12 19:58N 44°09' E 028°39'0 0.0
2017-Nov-12 19:28N 44°09' E 028°39'0 0.0
2017-Nov-12 18:58N 44°09' E 028°39'0 0.0
2017-Nov-12 18:28N 44°09' E 028°39'0 0.0
2017-Nov-12 17:58N 44°09' E 028°39'0 0.0
2017-Nov-12 17:28N 44°09' E 028°39'0 0.0
2017-Nov-12 16:58N 44°09' E 028°39'0 0.0
2017-Nov-12 16:28N 44°09' E 028°39'0 0.0
2017-Nov-12 15:58N 44°09' E 028°39'0 0.0
2017-Nov-12 15:28N 44°09' E 028°39'0 0.0
2017-Nov-12 14:58N 44°09' E 028°39'0 0.0
2017-Nov-12 14:28N 44°09' E 028°39'0 0.0
2017-Nov-12 13:58N 44°09' E 028°39'0 0.0
2017-Nov-12 13:28N 44°09' E 028°39'0 0.0
2017-Nov-12 12:58N 44°09' E 028°39'0 0.0
2017-Nov-12 12:28N 44°09' E 028°39'0 0.7
2017-Nov-12 12:00N 44°09' E 028°39'3 5.1
2017-Nov-12 11:30N 44°07' E 028°41'4 7.9
2017-Nov-12 11:00N 44°04' E 028°45'4 8.8
2017-Nov-12 10:30N 44°01' E 028°48'4 8.8
2017-Nov-12 10:00N 43°56' E 028°50'5 9.3
2017-Nov-12 09:30N 43°52' E 028°50'5 9.5
2017-Nov-12 09:00N 43°47' E 028°49'5 9.3
2017-Nov-12 08:30N 43°43' E 028°47'  
Track history (hours):
 
Tides and Currents Weather Stations Pressure Air Temp Water Temp Dewpoint Dewpoint Depression Visibility Wind Speed Wind Dir Waves Ship Positions

Yilmaz Kaptan

Last reported at 2017-Nov-13 01:58 UTC. Time now 2017-Nov-20 07:29 UTC.
Position N 44°09' E 028°39'.

Length 73 m; draft 2.7 m.

Type: Cargo ship. MMSI: 271002143.

Date/timePositionNaut miles runAvg speedWind from/ knotsBaromVisibWave heightAir tempDewpointWater temp
2017-Nov-13 01:58N 44°09' E 028°39'0 0.0
2017-Nov-13 01:28N 44°09' E 028°39'0 0.0
2017-Nov-13 00:58N 44°09' E 028°39'0 0.0
2017-Nov-13 00:28N 44°09' E 028°39'0 0.0
2017-Nov-12 23:58N 44°09' E 028°39'0 0.0
2017-Nov-12 23:28N 44°09' E 028°39'0 0.0
2017-Nov-12 22:58N 44°09' E 028°39'0 0.0
2017-Nov-12 22:28N 44°09' E 028°39'0 0.0
2017-Nov-12 21:58N 44°09' E 028°39'0 0.0
2017-Nov-12 21:28N 44°09' E 028°39'0 0.0
2017-Nov-12 20:58N 44°09' E 028°39'0 0.0
2017-Nov-12 20:28N 44°09' E 028°39'0 0.0
2017-Nov-12 19:58N 44°09' E 028°39'0 0.0
2017-Nov-12 19:28N 44°09' E 028°39'0 0.0
2017-Nov-12 18:58N 44°09' E 028°39'0 0.0
2017-Nov-12 18:28N 44°09' E 028°39'0 0.0
2017-Nov-12 17:58N 44°09' E 028°39'0 0.0
2017-Nov-12 17:28N 44°09' E 028°39'0 0.0
2017-Nov-12 16:58N 44°09' E 028°39'0 0.0
2017-Nov-12 16:28N 44°09' E 028°39'0 0.0
2017-Nov-12 15:58N 44°09' E 028°39'0 0.0
2017-Nov-12 15:28N 44°09' E 028°39'0 0.0
2017-Nov-12 14:58N 44°09' E 028°39'0 0.0
2017-Nov-12 14:28N 44°09' E 028°39'0 0.0
2017-Nov-12 13:58N 44°09' E 028°39'0 0.0
2017-Nov-12 13:28N 44°09' E 028°39'0 0.0
2017-Nov-12 12:58N 44°09' E 028°39'0 0.0
2017-Nov-12 12:28N 44°09' E 028°39'0 0.7
2017-Nov-12 12:00N 44°09' E 028°39'3 5.1
2017-Nov-12 11:30N 44°07' E 028°41'4 7.9
2017-Nov-12 11:00N 44°04' E 028°45'4 8.8
2017-Nov-12 10:30N 44°01' E 028°48'4 8.8
2017-Nov-12 10:00N 43°56' E 028°50'5 9.3
2017-Nov-12 09:30N 43°52' E 028°50'5 9.5
2017-Nov-12 09:00N 43°47' E 028°49'5 9.3
2017-Nov-12 08:30N 43°43' E 028°47'  

Dump ship's entire track history